Terminal Aerodrome Forecast
Issued by NWS

Home | Current Version | Previous Version | Text Only | Print | Product List | Glossary On
Versions: 1 2 3 4 5 6 7 8 9 10 11 12 13 14
000
FTUS42 KMLB 241725
TAFTIX
TAF
KTIX 241725Z 2418/2518 09008KT P6SM SCT035
     FM242000 10012KT P6SM SCT035 BKN250
     FM250200 15004KT P6SM SCT250=

USA.gov is the U.S. government's official web portal to all federal, state and local government web resources and services.